グアム の空港の天気 - METARとTAF

グアム国際空港 ( PGUM / GUM ) - グアム ハガニア
飛行場実況気象(Metar)
観測時間11/27 18:54 ChST (11/27 08:54 UTC)
風向・風速東北東 5m/s
視程10km以上
天気現象
なし
気温27.8℃
湿度85%
気圧1010.5hPa
METARPGUM 270854Z 07009KT 10SM CLR 28/25 A2987 RMK AO2 RAE03 SLP105 P0001 60001 T02780250 51010
過去の天気等 Google飛行場航空写真 Wunderground天気予報

過去48時間のMETAR

飛行場予報(TAF)
発表時間: 11/27 16:31 ChST (11/27 06:31 UTC)
予報対象時間: 27日17時 ChST ~ 28日22時 ChST
風向・風速東北東 7m/s
視程10km以上
天気現象周辺でしゅう雨
全天の4割程度の雲 雲底高度 670m
27日18時 ChST から
風向・風速東北東 5m/s
視程10km以上
天気現象周辺でしゅう雨
全天の4割程度の雲 雲底高度 550m
PGUM 270631Z 2707/2812 07013KT P6SM VCSH SCT022
FM270800 07009KT P6SM VCSH SCT018